createdAt,value
2019-01-22T02:52:19.373Z,87.29
2019-01-22T08:02:41.353Z,88.56
2019-01-22T08:05:41.357Z,88.34
2019-01-22T09:21:40.539Z,80.61
2019-01-22T10:58:39.504Z,71.30
2019-01-22T11:03:39.484Z,71.38
2019-01-22T11:04:39.486Z,70.85
2019-01-22T11:05:42.232Z,71.16
2019-01-22T11:06:39.439Z,71.06
2019-01-22T11:07:39.414Z,70.43
2019-01-22T11:08:39.410Z,70.75
2019-01-22T11:09:39.600Z,70.12
2019-01-22T11:10:39.375Z,70.22
2019-01-22T11:11:39.364Z,70.40
2019-01-22T11:12:39.751Z,70.30
2019-01-22T11:13:39.364Z,69.81
2019-01-22T11:14:39.330Z,70.43
2019-01-22T11:15:39.354Z,69.87
2019-01-22T11:16:40.418Z,71.03
2019-01-22T11:17:39.303Z,69.77
2019-01-22T11:18:39.278Z,69.98
2019-01-22T11:19:39.274Z,69.91
2019-01-22T11:20:39.260Z,69.46
2019-01-22T11:21:39.372Z,68.23
2019-01-22T11:22:39.228Z,69.91
2019-01-22T11:23:39.292Z,69.81
2019-01-22T11:24:39.222Z,70.22
2019-01-22T11:25:43.495Z,70.22
2019-01-22T11:26:39.196Z,70.61
2019-01-22T11:27:39.178Z,70.09
2019-01-22T11:28:39.165Z,70.30
2019-01-22T11:29:40.588Z,70.19
2019-01-22T11:30:39.637Z,70.61
2019-01-22T11:31:39.138Z,69.46
2019-01-22T11:32:39.129Z,70.01
2019-01-22T11:33:39.110Z,69.49
2019-01-22T11:34:39.094Z,69.59
2019-01-22T11:35:39.100Z,70.01
2019-01-22T11:36:39.103Z,69.91
2019-01-22T11:37:39.088Z,70.01
2019-01-22T11:38:39.056Z,69.59
2019-01-22T11:39:39.049Z,69.91
2019-01-22T11:40:39.059Z,70.33
2019-01-22T11:41:39.022Z,69.28
2019-01-22T11:42:39.022Z,70.05
2019-01-22T11:43:39.040Z,69.70
2019-01-22T11:44:39.001Z,69.70
2019-01-22T11:45:38.980Z,70.64
2019-01-22T11:46:38.987Z,70.33
2019-01-22T11:47:38.950Z,69.81
2019-01-22T11:48:42.127Z,69.91
2019-01-22T11:49:39.144Z,68.23
2019-01-22T11:50:38.958Z,69.00
2019-01-22T11:57:38.835Z,69.81
2019-01-22T12:09:38.769Z,69.84
2019-01-22T12:10:38.707Z,69.84
2019-01-22T12:18:38.615Z,70.57
2019-01-22T12:23:38.569Z,70.22
2019-01-22T12:24:38.547Z,70.47
2019-01-22T12:28:38.504Z,71.51
2019-01-22T12:30:38.491Z,70.12
2019-01-22T12:32:38.468Z,70.22
2019-01-22T12:37:38.412Z,71.09
2019-01-22T12:38:39.441Z,70.15
2019-01-22T12:40:38.376Z,70.43
2019-01-22T12:41:38.579Z,71.06
2019-01-22T12:42:38.348Z,70.54
2019-01-22T12:43:38.346Z,70.54
2019-01-22T12:44:38.358Z,70.54
2019-01-22T12:45:38.332Z,70.54
2019-01-22T12:46:41.192Z,70.22
2019-01-22T12:47:40.292Z,69.49
2019-01-22T12:48:38.286Z,69.59
2019-01-22T12:49:38.275Z,70.64
2019-01-22T12:50:38.482Z,70.33
2019-01-22T12:51:38.252Z,70.12
2019-01-22T12:52:38.256Z,70.12
2019-01-22T12:53:38.245Z,70.33
2019-01-22T12:54:38.253Z,70.50
2019-01-22T12:55:38.203Z,70.43
2019-01-22T12:56:38.198Z,70.12
2019-01-22T12:57:38.217Z,70.43
2019-01-22T12:58:38.170Z,70.33
2019-01-22T12:59:38.160Z,69.49
2019-01-22T13:00:38.187Z,70.22
2019-01-22T13:01:38.277Z,70.64
2019-01-22T13:02:38.142Z,69.77
2019-01-22T13:03:38.118Z,69.59
2019-01-22T13:04:38.155Z,70.33
2019-01-22T13:05:38.133Z,70.33
2019-01-22T13:06:38.118Z,69.81
2019-01-22T13:07:38.086Z,69.81
2019-01-22T13:08:38.482Z,69.87
2019-01-22T13:09:40.676Z,69.77
2019-01-22T13:10:38.049Z,69.87
2019-01-22T13:11:38.250Z,70.19
2019-01-22T13:12:38.054Z,70.12
2019-01-22T13:13:39.007Z,69.98
2019-01-22T13:14:39.176Z,69.77
2019-01-22T13:15:37.997Z,69.77
2019-01-22T13:16:37.981Z,70.19
2019-01-22T13:17:39.206Z,70.19
2019-01-22T13:18:38.198Z,70.30
2019-01-22T13:19:37.946Z,70.61
2019-01-22T13:20:37.941Z,69.98
2019-01-22T13:21:37.918Z,69.77
2019-01-22T13:22:37.919Z,70.40
2019-01-22T13:23:37.897Z,70.19
2019-01-22T13:24:37.886Z,70.09
2019-01-22T13:25:37.888Z,70.19
2019-01-22T13:26:37.902Z,70.33
2019-01-22T13:27:37.863Z,70.22
2019-01-22T13:28:37.859Z,71.06
2019-01-22T13:29:37.849Z,70.64
2019-01-22T13:30:38.661Z,70.54
2019-01-22T13:31:37.843Z,71.16
2019-01-22T13:32:37.807Z,70.75
2019-01-22T13:33:37.791Z,70.50
2019-01-22T13:34:38.777Z,70.30
2019-01-22T13:35:37.785Z,70.72
2019-01-22T13:36:37.774Z,71.13
2019-01-22T13:37:37.752Z,70.82
2019-01-22T13:38:37.796Z,71.24
2019-01-22T13:39:37.725Z,70.82
2019-01-22T13:40:37.707Z,70.72
2019-01-22T13:41:37.705Z,70.61
2019-01-22T13:42:37.692Z,70.40
2019-01-22T13:43:37.682Z,70.40
2019-01-22T13:44:37.668Z,70.72
2019-01-22T13:45:37.658Z,69.98
2019-01-22T13:46:37.646Z,70.19
2019-01-22T13:47:37.651Z,70.61
2019-01-22T13:48:37.643Z,70.72
2019-01-22T13:49:37.683Z,70.61
2019-01-22T13:50:37.635Z,70.92
2019-01-22T13:51:37.603Z,71.03
2019-01-22T13:52:37.582Z,70.40
2019-01-22T13:53:37.571Z,70.30
2019-01-22T13:54:37.557Z,70.30
2019-01-22T13:55:37.550Z,70.19
2019-01-22T13:56:37.538Z,70.26
2019-01-22T13:57:37.547Z,70.05
2019-01-22T13:58:37.515Z,70.37
2019-01-22T13:59:37.524Z,69.84
2019-01-22T14:00:39.423Z,70.47
2019-01-22T14:01:37.483Z,69.74
2019-01-22T14:02:37.484Z,70.26
2019-01-22T14:03:37.466Z,70.47
2019-01-22T14:04:37.470Z,70.12
2019-01-22T14:05:37.552Z,69.95
2019-01-22T14:06:37.427Z,70.26
2019-01-22T14:07:37.437Z,70.16
2019-01-22T14:08:37.430Z,70.16
2019-01-22T14:09:38.411Z,70.68
2019-01-22T14:10:37.398Z,70.50
2019-01-22T14:11:37.375Z,70.37
2019-01-22T14:12:37.409Z,70.78
2019-01-22T14:13:37.358Z,70.72
2019-01-22T14:14:37.348Z,71.13
2019-01-22T14:15:37.504Z,71.10
2019-01-22T14:16:37.326Z,70.37
2019-01-22T14:17:37.493Z,70.82
2019-01-22T14:18:37.299Z,70.78
2019-01-22T14:19:39.511Z,71.03
2019-01-22T14:20:37.281Z,71.55
2019-01-22T14:21:37.270Z,70.92
2019-01-22T14:22:37.266Z,71.66
2019-01-22T14:23:37.242Z,71.20
2019-01-22T14:24:37.232Z,71.86
2019-01-22T14:25:37.248Z,71.24
2019-01-22T14:26:37.209Z,71.83
2019-01-22T14:27:37.206Z,71.45
2019-01-22T14:28:37.243Z,72.46
2019-01-22T14:29:37.887Z,71.45
2019-01-22T14:30:37.190Z,71.45
2019-01-22T14:31:37.165Z,71.34
2019-01-22T14:32:37.169Z,71.97
2019-01-22T14:33:38.577Z,71.76
2019-01-22T14:34:37.215Z,72.39
2019-01-22T14:35:37.122Z,72.29
2019-01-22T14:36:37.104Z,72.29
2019-01-22T14:37:37.107Z,73.05
2019-01-22T14:38:37.100Z,72.32
2019-01-22T14:39:37.479Z,72.52
2019-01-22T14:40:37.063Z,72.84
2019-01-22T14:41:37.046Z,73.15
2019-01-22T14:42:37.243Z,72.94
2019-01-22T14:43:37.259Z,72.63
2019-01-22T14:44:37.047Z,72.74
2019-01-22T14:45:37.125Z,73.47
2019-01-22T14:52:36.958Z,73.26
2019-01-22T20:13:14.109Z,82.76
2019-01-22T20:26:13.998Z,82.97
2019-01-22T20:29:13.943Z,82.55
2019-01-22T20:30:13.936Z,81.92
2019-01-22T20:39:13.848Z,82.34
2019-01-22T20:53:13.702Z,81.50
2019-01-22T21:05:13.590Z,82.24
2019-01-22T21:10:13.529Z,82.34
2019-01-22T21:14:13.487Z,82.76
2019-01-22T21:21:14.813Z,82.13
2019-01-22T21:28:13.324Z,82.24
2019-01-22T21:29:13.336Z,82.34
2019-01-22T21:34:13.280Z,82.34
2019-01-22T21:41:13.211Z,84.33
2019-01-22T22:44:12.527Z,85.38
2019-01-22T22:46:12.515Z,85.18
2019-01-22T23:35:36.647Z,87.90
